createdAt,value
2022-07-26T00:00:25.379Z,8.80
2022-07-26T00:05:43.966Z,8.10
2022-07-26T00:10:51.994Z,8.20
2022-07-26T00:15:56.451Z,7.70
2022-07-26T00:21:00.995Z,6.30
2022-07-26T00:26:05.201Z,8.20
2022-07-26T00:31:12.457Z,7.60
2022-07-26T00:36:16.975Z,6.90
2022-07-26T00:41:21.193Z,8.00
2022-07-26T00:46:25.776Z,7.40
2022-07-26T00:51:30.171Z,8.00
2022-07-26T00:56:35.387Z,7.80
2022-07-26T01:01:39.593Z,5.20
2022-07-26T01:06:44.395Z,9.40
2022-07-26T01:11:48.568Z,7.00
2022-07-26T01:16:54.512Z,7.20
2022-07-26T01:21:58.894Z,7.70
2022-07-26T01:27:03.530Z,7.00
2022-07-26T01:32:08.908Z,9.60
2022-07-26T01:37:13.257Z,9.10
2022-07-26T01:42:17.396Z,9.60
2022-07-26T01:47:21.499Z,7.30
2022-07-26T01:52:27.834Z,8.70
2022-07-26T01:57:32.131Z,7.70
2022-07-26T02:02:36.567Z,8.00
2022-07-26T02:07:44.706Z,8.70
2022-07-26T02:12:49.042Z,10.50
2022-07-26T02:17:53.085Z,7.40
2022-07-26T02:22:57.322Z,7.80
2022-07-26T02:28:02.384Z,8.40
2022-07-26T02:33:06.914Z,8.80
2022-07-26T02:38:14.793Z,9.60
2022-07-26T02:43:18.874Z,5.90
2022-07-26T02:48:23.127Z,8.70
2022-07-26T02:53:27.728Z,8.40
2022-07-26T02:58:32.103Z,8.70
2022-07-26T03:03:36.618Z,6.90
2022-07-26T03:08:42.408Z,8.60
2022-07-26T03:13:46.760Z,7.70
2022-07-26T03:18:50.802Z,7.20
2022-07-26T03:23:55.226Z,9.20
2022-07-26T03:28:59.739Z,8.70
2022-07-26T03:34:04.177Z,6.60
2022-07-26T03:39:08.667Z,9.40
2022-07-26T03:44:12.867Z,8.30
2022-07-26T03:49:19.958Z,10.10
2022-07-26T03:54:24.771Z,8.60
2022-07-26T03:59:29.212Z,9.30
2022-07-26T04:04:33.336Z,9.80
2022-07-26T04:09:39.398Z,8.60
2022-07-26T04:14:43.553Z,8.90
2022-07-26T04:19:47.706Z,7.00
2022-07-26T04:24:52.144Z,9.20
2022-07-26T04:29:56.465Z,9.70
2022-07-26T04:35:00.929Z,9.30
2022-07-26T04:40:06.448Z,8.00
2022-07-26T04:45:13.093Z,8.90
2022-07-26T04:50:22.132Z,9.10
2022-07-26T04:55:26.576Z,7.80
2022-07-26T05:00:30.808Z,9.10
2022-07-26T05:05:35.335Z,9.10
2022-07-26T05:10:39.924Z,8.80
2022-07-26T05:15:44.969Z,8.30
2022-07-26T05:20:52.481Z,9.40
2022-07-26T05:25:57.346Z,10.40
2022-07-26T05:31:01.930Z,8.80
2022-07-26T05:36:07.177Z,8.50
2022-07-26T05:41:11.794Z,10.10
2022-07-26T05:46:19.023Z,10.50
2022-07-26T05:51:23.227Z,10.60
2022-07-26T05:56:27.249Z,13.60
2022-07-26T06:01:33.104Z,12.40
2022-07-26T06:06:37.569Z,10.70
2022-07-26T06:11:41.921Z,9.20
2022-07-26T06:16:50.709Z,9.00
2022-07-26T06:21:54.930Z,10.80
2022-07-26T06:27:05.301Z,8.80
2022-07-26T06:32:09.940Z,9.00
2022-07-26T06:37:14.373Z,10.90
2022-07-26T06:42:18.505Z,10.50
2022-07-26T06:47:22.743Z,11.30
2022-07-26T06:52:27.082Z,10.60
2022-07-26T06:57:31.859Z,10.90
2022-07-26T07:02:37.527Z,9.40
2022-07-26T07:07:42.251Z,9.80
2022-07-26T07:12:47.039Z,9.00
2022-07-26T07:17:52.873Z,9.60
2022-07-26T07:22:57.433Z,9.80
2022-07-26T07:28:02.119Z,8.70
2022-07-26T07:33:06.727Z,8.00
2022-07-26T07:38:11.140Z,8.60
2022-07-26T07:43:15.470Z,9.10
2022-07-26T07:48:22.608Z,9.20
2022-07-26T07:53:26.752Z,8.70
2022-07-26T07:58:30.980Z,9.40
2022-07-26T08:03:38.586Z,9.30
2022-07-26T08:08:43.451Z,8.90
2022-07-26T08:13:48.216Z,11.30
2022-07-26T08:18:57.979Z,9.40
2022-07-26T08:24:02.517Z,9.50
2022-07-26T08:29:06.864Z,10.80
2022-07-26T08:34:11.524Z,10.40
2022-07-26T08:39:16.666Z,11.10
2022-07-26T08:44:21.057Z,11.20
2022-07-26T08:49:25.628Z,12.60
2022-07-26T08:54:30.101Z,12.20
2022-07-26T08:59:34.562Z,12.20
2022-07-26T09:04:44.730Z,11.70
2022-07-26T09:10:06.405Z,12.10
2022-07-26T09:15:27.265Z,11.30
2022-07-26T09:20:34.060Z,11.50
2022-07-26T09:25:43.694Z,10.60
2022-07-26T09:31:02.191Z,13.80
2022-07-26T09:36:08.422Z,12.10
2022-07-26T09:41:36.916Z,11.60
2022-07-26T09:52:01.303Z,11.70
2022-07-26T09:57:05.525Z,13.50
2022-07-26T10:02:10.691Z,13.50
2022-07-26T10:07:16.818Z,13.00
2022-07-26T10:12:30.324Z,13.30
2022-07-26T10:17:43.386Z,12.40
2022-07-26T10:22:51.255Z,11.70
2022-07-26T10:27:58.949Z,10.80
2022-07-26T10:33:16.775Z,11.30
2022-07-26T10:38:27.255Z,10.40
2022-07-26T10:43:41.190Z,10.40
2022-07-26T10:49:09.539Z,9.20
2022-07-26T10:54:16.415Z,10.10
2022-07-26T10:59:54.844Z,8.50
2022-07-26T11:05:15.135Z,9.80
2022-07-26T11:10:50.023Z,8.40
2022-07-26T11:16:03.982Z,8.60
2022-07-26T11:21:17.570Z,8.60
2022-07-26T11:26:25.703Z,9.60
2022-07-26T11:37:06.844Z,6.60
2022-07-26T11:42:23.018Z,7.80
2022-07-26T11:47:27.547Z,7.60
2022-07-26T11:52:32.678Z,7.10
2022-07-26T11:57:37.675Z,6.90
2022-07-26T12:02:45.526Z,6.50
2022-07-26T12:08:05.892Z,6.00
2022-07-26T12:13:15.781Z,6.20
2022-07-26T12:18:30.425Z,6.10
2022-07-26T12:23:46.289Z,5.40
2022-07-26T12:28:51.283Z,5.80
2022-07-26T12:33:56.075Z,6.60
2022-07-26T12:39:22.396Z,6.40
2022-07-26T12:44:26.607Z,5.70
2022-07-26T12:49:31.030Z,5.50
2022-07-26T12:54:35.805Z,5.40
2022-07-26T12:59:44.781Z,5.40
2022-07-26T13:04:50.701Z,5.70
2022-07-26T13:10:29.991Z,6.90
2022-07-26T13:15:21.601Z,6.60
2022-07-26T13:20:26.427Z,6.50
2022-07-26T13:25:38.678Z,6.70
2022-07-26T13:30:45.770Z,6.40
2022-07-26T13:35:50.491Z,6.10
2022-07-26T13:41:01.640Z,5.60
2022-07-26T13:46:09.641Z,6.50
2022-07-26T13:56:22.254Z,6.40
2022-07-26T14:01:27.758Z,7.10
2022-07-26T14:07:14.937Z,7.00
2022-07-26T14:12:20.664Z,6.60
2022-07-26T14:17:25.885Z,6.50
2022-07-26T14:22:31.628Z,6.30
2022-07-26T14:27:35.775Z,6.40
2022-07-26T14:32:40.214Z,8.20
2022-07-26T14:37:45.822Z,8.10
2022-07-26T14:42:51.115Z,9.30
2022-07-26T14:47:56.632Z,7.40
2022-07-26T14:53:01.571Z,7.60
2022-07-26T14:58:06.192Z,8.20
2022-07-26T15:03:13.934Z,9.90
2022-07-26T15:08:18.377Z,9.40
2022-07-26T15:13:22.834Z,8.30
2022-07-26T15:18:27.786Z,8.70
2022-07-26T15:23:32.730Z,17.60
2022-07-26T15:28:36.775Z,13.40
2022-07-26T15:33:41.313Z,10.10
2022-07-26T15:38:48.103Z,9.40
2022-07-26T15:43:52.332Z,9.60
2022-07-26T15:49:00.864Z,9.60
2022-07-26T15:54:07.574Z,8.70
2022-07-26T15:59:12.828Z,8.40
2022-07-26T16:04:17.358Z,9.10
2022-07-26T16:09:22.839Z,8.60
2022-07-26T16:14:27.263Z,8.00
2022-07-26T16:19:32.141Z,8.10
2022-07-26T16:24:37.700Z,8.10
2022-07-26T16:29:41.788Z,8.40
2022-07-26T16:34:46.486Z,7.80
2022-07-26T16:39:51.392Z,8.40
2022-07-26T16:44:59.956Z,8.30
2022-07-26T16:50:06.414Z,10.70
2022-07-26T16:55:11.805Z,11.20
2022-07-26T17:00:18.282Z,10.30
2022-07-26T17:05:22.643Z,9.50
2022-07-26T17:10:27.312Z,8.20
2022-07-26T17:15:31.904Z,8.60
2022-07-26T17:20:36.608Z,8.10
2022-07-26T17:25:40.971Z,9.10
2022-07-26T17:30:45.427Z,11.90
2022-07-26T17:35:50.273Z,10.40
2022-07-26T17:40:54.799Z,18.90
2022-07-26T17:45:59.305Z,19.40
2022-07-26T17:51:04.194Z,29.90
2022-07-26T17:56:08.713Z,31.40
2022-07-26T18:01:13.356Z,24.60
2022-07-26T18:06:19.119Z,22.30
2022-07-26T18:11:25.385Z,18.40
2022-07-26T18:16:30.197Z,18.60
2022-07-26T18:21:34.397Z,16.80
2022-07-26T18:26:38.792Z,19.90
2022-07-26T18:31:45.730Z,25.40
2022-07-26T18:36:50.781Z,20.90
2022-07-26T18:41:55.716Z,14.10
2022-07-26T18:47:00.515Z,14.60
2022-07-26T18:52:08.885Z,13.60
2022-07-26T18:57:13.327Z,13.80
2022-07-26T19:02:17.885Z,13.60
2022-07-26T19:07:22.281Z,12.90
2022-07-26T19:12:30.004Z,11.70
2022-07-26T19:17:35.738Z,10.60
2022-07-26T19:22:41.870Z,9.10
2022-07-26T19:27:48.656Z,9.60
2022-07-26T19:32:52.953Z,9.70
2022-07-26T19:38:00.276Z,9.10
2022-07-26T19:43:05.276Z,9.20
2022-07-26T19:48:10.510Z,6.60
2022-07-26T19:53:16.550Z,9.50
2022-07-26T19:58:21.656Z,7.80
2022-07-26T20:03:33.969Z,6.10
2022-07-26T20:08:40.349Z,4.80
2022-07-26T20:13:45.294Z,4.20
2022-07-26T20:18:50.712Z,3.70
2022-07-26T20:23:54.936Z,3.10
2022-07-26T20:29:01.060Z,3.10
2022-07-26T20:34:05.428Z,3.40
2022-07-26T20:39:10.223Z,3.10
2022-07-26T20:44:15.813Z,3.20
2022-07-26T20:49:22.337Z,2.60
2022-07-26T20:54:26.819Z,2.20
2022-07-26T20:59:35.866Z,2.00
2022-07-26T21:04:40.355Z,1.80
2022-07-26T21:09:44.560Z,2.00
2022-07-26T21:14:50.470Z,2.20
2022-07-26T21:19:55.073Z,2.40
2022-07-26T21:24:59.734Z,2.50
2022-07-26T21:30:05.803Z,2.60
2022-07-26T21:35:10.452Z,2.30
2022-07-26T21:40:15.105Z,2.60
2022-07-26T21:45:19.541Z,3.40
2022-07-26T21:50:24.085Z,2.10
2022-07-26T21:55:29.134Z,1.90
2022-07-26T22:00:37.344Z,3.10
2022-07-26T22:05:45.685Z,2.30
2022-07-26T22:10:54.394Z,2.10
2022-07-26T22:16:02.349Z,4.30
2022-07-26T22:21:06.919Z,3.10
2022-07-26T22:26:11.351Z,2.60
2022-07-26T22:31:15.711Z,3.20
2022-07-26T22:36:20.256Z,2.80
2022-07-26T22:41:24.364Z,2.80
2022-07-26T22:46:29.323Z,2.50
2022-07-26T22:51:33.870Z,2.30
2022-07-26T22:56:42.715Z,2.40
2022-07-26T23:01:46.955Z,2.10
2022-07-26T23:06:51.299Z,2.00
2022-07-26T23:11:59.380Z,1.80
2022-07-26T23:17:03.537Z,2.70
2022-07-26T23:22:08.101Z,3.00
2022-07-26T23:27:15.504Z,1.80
2022-07-26T23:32:23.951Z,2.40
2022-07-26T23:37:28.290Z,2.60
2022-07-26T23:42:32.842Z,2.20
2022-07-26T23:47:37.064Z,2.30
2022-07-26T23:52:41.514Z,2.10
2022-07-26T23:57:45.766Z,1.90
